Main page
METAR-TAF:

METAR-TAF

Airports :

Cairns Airport

Cairns, Australia

latitude: 16-53S, longitude: 145-45E, elevation: 3 m

Current weather observation

The report was made 24 minutes ago, at 07:30 UTC
Wind 5 kt from the North/Northeast
Temperature 23°C
Humidity 73%
Pressure 1013 hPa
Visibility 10 km or more

METAR: YBCS 150730Z AUTO 03005KT 9999 // NCD 23/18 Q1013 RF00.0/000.0

Time: 17:54 (07:54 UTC)

Forecast

The report was made 2 hours and 47 minutes ago, at 05:07 UTC
Forecast valid from 15 at 06 UTC to 16 at 06 UTC
Wind 10 kt from the Northeast
Visibility 10 km or more
Few clouds at a height of 3500 ft
From 15 at 0900 UTC
Wind 6 kt from the West
Visibility 10 km or more
Few clouds at a height of 3500 ft
From 16 at 0100 UTC
Wind 8 kt from the East/Northeast
Visibility 10 km or more
no clouds below 1500 m and no cumulonimbus

TAF: YBCS 150507Z 1506/1606 05010KT 9999 FEW035 FM150900 26006KT 9999 FEW035 FM160100 06008KT CAVOK

Weather observations and forecasts of more than 4000 airports (METAR and TAF reports).

The available stations are represented by yellow and red dots on the map.

Hover mouse over dot to see the name of the station.

Then click to see weather observations and forecasts.

To change the map : click on the green buttons with a black cross to zoom in, on the green button with a dash to zoom out, or on the green arrows for adjacent maps.


METAR-TAF: